createdAt,value
2022-10-04T00:02:07.841Z,99797.94
2022-10-04T00:04:53.816Z,99804.09
2022-10-04T00:07:26.377Z,99811.25
2022-10-04T00:10:08.150Z,99798.00
2022-10-04T00:12:49.922Z,99796.28
2022-10-04T00:15:29.404Z,99808.44
2022-10-04T00:18:28.407Z,99804.09
2022-10-04T00:21:00.709Z,99794.81
2022-10-04T00:23:31.693Z,99798.13
2022-10-04T00:26:03.365Z,99799.00
2022-10-04T00:28:41.852Z,99798.88
2022-10-04T00:31:10.873Z,99792.72
2022-10-04T00:33:39.675Z,99783.84
2022-10-04T00:36:21.875Z,99790.84
2022-10-04T00:39:10.343Z,99791.25
2022-10-04T00:41:52.380Z,99788.31
2022-10-04T00:44:25.638Z,99789.13
2022-10-04T00:46:54.416Z,99787.53
2022-10-04T00:49:26.974Z,99783.09
2022-10-04T00:52:02.295Z,99790.94
2022-10-04T00:54:34.465Z,99783.97
2022-10-04T00:57:07.786Z,99780.25
2022-10-04T00:59:52.680Z,99782.72
2022-10-04T01:02:29.370Z,99783.03
2022-10-04T01:05:04.451Z,99786.22
2022-10-04T01:07:33.782Z,99778.28
2022-10-04T01:10:09.468Z,99770.34
2022-10-04T01:12:57.319Z,99781.13
2022-10-04T01:15:37.158Z,99766.78
2022-10-04T01:18:12.722Z,99756.97
2022-10-04T01:20:50.612Z,99758.22
2022-10-04T01:23:36.276Z,99760.44
2022-10-04T01:26:24.239Z,99755.13
2022-10-04T01:28:51.289Z,99756.19
2022-10-04T01:31:19.360Z,99765.13
2022-10-04T01:33:46.689Z,99775.59
2022-10-04T01:36:13.728Z,99764.91
2022-10-04T01:38:40.783Z,99762.03
2022-10-04T01:41:09.104Z,99764.66
2022-10-04T01:43:37.908Z,99770.75
2022-10-04T01:46:14.171Z,99768.16
2022-10-04T01:48:44.275Z,99772.81
2022-10-04T01:51:22.262Z,99765.66
2022-10-04T01:53:55.531Z,99766.31
2022-10-04T01:56:27.888Z,99769.16
2022-10-04T01:58:59.368Z,99760.63
2022-10-04T02:01:28.993Z,99760.44
2022-10-04T02:03:59.826Z,99768.41
2022-10-04T02:06:33.608Z,99769.69
2022-10-04T02:09:16.029Z,99763.53
2022-10-04T02:11:44.663Z,99769.56
2022-10-04T02:14:35.828Z,99765.31
2022-10-04T02:17:05.513Z,99772.13
2022-10-04T02:19:45.656Z,99766.03
2022-10-04T02:22:14.630Z,99770.28
2022-10-04T02:24:44.510Z,99772.97
2022-10-04T02:27:11.656Z,99767.56
2022-10-04T02:29:42.978Z,99771.38
2022-10-04T02:32:32.381Z,99774.94
2022-10-04T02:34:59.362Z,99771.22
2022-10-04T02:37:27.798Z,99774.03
2022-10-04T02:40:10.712Z,99760.81
2022-10-04T02:43:02.467Z,99783.72
2022-10-04T02:45:59.137Z,99779.47
2022-10-04T02:48:44.844Z,99770.69
2022-10-04T02:51:18.256Z,99782.19
2022-10-04T02:53:54.897Z,99784.03
2022-10-04T02:56:25.169Z,99782.25
2022-10-04T02:58:57.544Z,99783.03
2022-10-04T03:01:27.092Z,99788.72
2022-10-04T03:03:55.265Z,99771.78
2022-10-04T03:06:29.503Z,99770.00
2022-10-04T03:09:01.244Z,99769.13
2022-10-04T03:11:40.977Z,99763.84
2022-10-04T03:14:15.184Z,99762.06
2022-10-04T03:16:44.825Z,99766.81
2022-10-04T03:19:13.818Z,99771.91
2022-10-04T03:21:43.175Z,99780.78
2022-10-04T03:24:14.181Z,99777.34
2022-10-04T03:26:46.372Z,99780.78
2022-10-04T03:29:14.753Z,99779.81
2022-10-04T03:31:47.371Z,99775.47
2022-10-04T03:34:20.508Z,99796.66
2022-10-04T03:36:49.686Z,99796.66
2022-10-04T03:39:39.829Z,99795.72
2022-10-04T03:42:16.002Z,99795.81
2022-10-04T03:44:46.870Z,99787.25
2022-10-04T03:47:35.873Z,99794.31
2022-10-04T03:50:13.101Z,99802.38
2022-10-04T03:52:42.965Z,99804.28
2022-10-04T03:55:12.796Z,99800.84
2022-10-04T03:57:41.809Z,99795.56
2022-10-04T04:00:15.339Z,99793.03
2022-10-04T04:03:06.664Z,99804.16
2022-10-04T04:05:45.011Z,99809.47
2022-10-04T04:08:34.902Z,99802.44
2022-10-04T04:11:04.954Z,99801.59
2022-10-04T04:13:31.853Z,99809.56
2022-10-04T04:16:01.846Z,99806.16
2022-10-04T04:18:31.488Z,99800.84
2022-10-04T04:21:00.456Z,99806.88
2022-10-04T04:23:35.074Z,99794.59
2022-10-04T04:26:15.983Z,99797.97
2022-10-04T04:28:45.132Z,99810.31
2022-10-04T04:31:21.206Z,99802.53
2022-10-04T04:33:48.609Z,99797.41
2022-10-04T04:36:17.550Z,99810.81
2022-10-04T04:39:03.291Z,99810.69
2022-10-04T04:41:41.126Z,99798.19
2022-10-04T04:44:17.644Z,99801.72
2022-10-04T04:46:46.215Z,99802.78
2022-10-04T04:49:17.086Z,99811.00
2022-10-04T04:51:54.073Z,99802.94
2022-10-04T04:54:24.329Z,99808.16
2022-10-04T04:56:52.369Z,99810.81
2022-10-04T04:59:20.740Z,99821.28
2022-10-04T05:01:48.449Z,99830.19
2022-10-04T05:04:37.289Z,99833.31
2022-10-04T05:07:06.774Z,99834.94
2022-10-04T05:09:41.628Z,99834.81
2022-10-04T05:12:12.499Z,99836.41
2022-10-04T05:14:41.407Z,99836.97
2022-10-04T05:17:09.214Z,99822.75
2022-10-04T05:19:37.713Z,99836.97
2022-10-04T05:22:24.263Z,99829.28
2022-10-04T05:25:00.279Z,99837.16
2022-10-04T05:27:32.319Z,99848.47
2022-10-04T05:30:05.090Z,99862.50
2022-10-04T05:32:41.230Z,99856.31
2022-10-04T05:35:16.245Z,99861.81
2022-10-04T05:38:06.435Z,99848.19
2022-10-04T05:40:50.514Z,99865.97
2022-10-04T05:43:46.570Z,99860.28
2022-10-04T05:46:19.630Z,99884.19
2022-10-04T05:48:52.356Z,99886.75
2022-10-04T05:51:23.296Z,99880.69
2022-10-04T05:53:50.265Z,99872.25
2022-10-04T05:56:27.280Z,99886.53
2022-10-04T05:59:00.327Z,99872.25
2022-10-04T06:01:45.887Z,99890.34
2022-10-04T06:04:33.628Z,99895.63
2022-10-04T06:07:23.332Z,99892.56
2022-10-04T06:10:10.044Z,99890.59
2022-10-04T06:12:56.575Z,99892.38
2022-10-04T06:15:35.601Z,99898.91
2022-10-04T06:18:15.382Z,99891.34
2022-10-04T06:20:55.168Z,99902.78
2022-10-04T06:23:23.981Z,99902.41
2022-10-04T06:26:10.473Z,99911.06
2022-10-04T06:28:39.785Z,99908.97
2022-10-04T06:31:25.287Z,99919.03
2022-10-04T06:34:07.161Z,99918.06
2022-10-04T06:36:44.689Z,99916.81
2022-10-04T06:39:19.699Z,99911.97
2022-10-04T06:41:52.757Z,99917.13
2022-10-04T06:44:29.018Z,99924.00
2022-10-04T06:47:14.251Z,99925.84
2022-10-04T06:50:03.237Z,99922.13
2022-10-04T06:53:05.352Z,99926.03
2022-10-04T06:55:41.471Z,99929.22
2022-10-04T06:58:30.902Z,99942.19
2022-10-04T07:01:02.748Z,99953.97
2022-10-04T07:04:25.746Z,99939.94
2022-10-04T07:07:32.768Z,99951.16
2022-10-04T07:10:38.166Z,99960.75
2022-10-04T07:13:10.996Z,99958.66
2022-10-04T07:15:50.857Z,99950.69
2022-10-04T07:18:24.222Z,99965.31
2022-10-04T07:21:19.955Z,99965.19
2022-10-04T07:23:57.230Z,99965.72
2022-10-04T07:26:29.420Z,99966.03
2022-10-04T07:29:19.792Z,99965.03
2022-10-04T07:31:49.343Z,99970.81
2022-10-04T07:34:27.172Z,99975.78
2022-10-04T07:36:57.584Z,99973.81
2022-10-04T07:39:31.603Z,99964.56
2022-10-04T07:42:15.113Z,99968.72
2022-10-04T07:45:03.793Z,99980.94
2022-10-04T07:47:39.159Z,99979.28
2022-10-04T07:50:26.878Z,99981.28
2022-10-04T07:53:05.904Z,99974.59
2022-10-04T07:55:45.618Z,99979.34
2022-10-04T07:58:30.093Z,99984.09
2022-10-04T08:01:08.131Z,99987.19
2022-10-04T08:03:58.643Z,99988.69
2022-10-04T08:06:41.921Z,99996.00
2022-10-04T08:09:32.877Z,99999.47
2022-10-04T08:12:12.440Z,99995.56
2022-10-04T08:14:59.232Z,100005.38
2022-10-04T08:17:59.973Z,100003.31
2022-10-04T08:20:51.671Z,100004.34
2022-10-04T08:23:27.348Z,99995.91
2022-10-04T08:26:07.525Z,100003.31
2022-10-04T08:29:11.733Z,100006.44
2022-10-04T08:31:41.928Z,100022.09
2022-10-04T08:34:18.300Z,100014.84
2022-10-04T08:37:03.999Z,100011.88
2022-10-04T08:39:36.752Z,100011.25
2022-10-04T08:42:33.872Z,100002.75
2022-10-04T08:45:24.516Z,100021.72
2022-10-04T08:47:54.940Z,100013.38
2022-10-04T08:50:33.728Z,100024.97
2022-10-04T08:53:26.549Z,100018.41
2022-10-04T08:56:25.418Z,100015.81
2022-10-04T08:59:12.276Z,100022.78
2022-10-04T09:02:09.094Z,100021.22
2022-10-04T09:04:45.239Z,100014.47
2022-10-04T09:07:50.191Z,100021.69
2022-10-04T09:10:30.053Z,100036.59
2022-10-04T09:13:05.637Z,100030.22
2022-10-04T09:15:43.750Z,100025.72
2022-10-04T09:18:14.777Z,100039.81
2022-10-04T09:21:08.556Z,100041.41
2022-10-04T09:23:41.637Z,100040.94
2022-10-04T09:26:33.656Z,100045.78
2022-10-04T09:29:19.235Z,100043.34
2022-10-04T09:31:50.101Z,100041.25
2022-10-04T09:34:37.594Z,100045.03
2022-10-04T09:37:07.779Z,100029.19
2022-10-04T09:39:53.342Z,100046.81
2022-10-04T09:42:34.040Z,100044.91
2022-10-04T09:45:06.607Z,100050.75
2022-10-04T09:47:55.014Z,100055.44
2022-10-04T09:50:28.644Z,100056.97
2022-10-04T09:53:20.610Z,100051.38
2022-10-04T09:56:10.993Z,100059.13
2022-10-04T09:58:55.017Z,100064.53
2022-10-04T10:01:35.873Z,100063.03
2022-10-04T10:04:05.848Z,100057.16
2022-10-04T10:06:45.609Z,100066.66
2022-10-04T10:13:11.743Z,100059.91
2022-10-04T10:16:24.609Z,100059.56
2022-10-04T10:19:05.839Z,100057.78
2022-10-04T10:22:04.567Z,100061.00
2022-10-04T10:24:37.852Z,100068.16
2022-10-04T10:27:20.076Z,100062.72
2022-10-04T10:30:04.467Z,100061.31
2022-10-04T10:32:51.962Z,100063.16
2022-10-04T10:35:37.502Z,100059.28
2022-10-04T10:38:23.268Z,100060.41
2022-10-04T10:40:50.151Z,100057.16
2022-10-04T10:43:33.791Z,100067.41
2022-10-04T10:46:33.139Z,100063.09
2022-10-04T10:49:06.120Z,100070.22
2022-10-04T10:51:56.262Z,100065.28
2022-10-04T10:54:38.457Z,100062.47
2022-10-04T10:57:37.254Z,100074.56
2022-10-04T11:00:06.794Z,100064.97
2022-10-04T11:03:07.163Z,100065.41
2022-10-04T11:05:51.110Z,100070.09
2022-10-04T11:08:18.968Z,100069.09
2022-10-04T11:11:00.171Z,100067.59
2022-10-04T11:13:48.941Z,100070.41
2022-10-04T11:16:29.970Z,100071.03
2022-10-04T11:18:56.815Z,100068.00
2022-10-04T11:21:36.007Z,100070.50
2022-10-04T11:24:02.774Z,100068.63
2022-10-04T11:26:46.910Z,100077.34
2022-10-04T11:29:32.361Z,100077.06
2022-10-04T11:32:02.401Z,100078.63
2022-10-04T11:34:48.019Z,100076.59
2022-10-04T11:37:17.383Z,100073.19
2022-10-04T11:40:00.847Z,100081.66
2022-10-04T11:42:40.611Z,100085.59
2022-10-04T11:45:33.712Z,100080.56
2022-10-04T11:48:19.258Z,100076.00
2022-10-04T11:51:09.893Z,100089.66
2022-10-04T11:53:43.862Z,100085.53
2022-10-04T11:56:13.907Z,100094.66
2022-10-04T11:58:45.734Z,100082.53
2022-10-04T12:01:30.737Z,100078.06
2022-10-04T12:04:10.543Z,100087.31
2022-10-04T12:06:57.961Z,100080.22
2022-10-04T12:09:41.123Z,100082.34
2022-10-04T12:12:29.682Z,100080.13
2022-10-04T12:15:15.049Z,100091.22
2022-10-04T12:18:05.703Z,100091.00
2022-10-04T12:20:32.599Z,100085.81
2022-10-04T12:23:25.488Z,100094.06
2022-10-04T12:25:55.483Z,100090.88
2022-10-04T12:28:43.063Z,100102.47
2022-10-04T12:31:18.943Z,100098.66
2022-10-04T12:33:48.960Z,100099.75
2022-10-04T12:36:18.459Z,100089.34
2022-10-04T12:38:46.867Z,100097.00
2022-10-04T12:41:16.748Z,100097.38
2022-10-04T12:43:52.904Z,100103.44
2022-10-04T12:46:40.411Z,100114.50
2022-10-04T12:49:17.442Z,100106.75
2022-10-04T12:52:05.828Z,100096.78
2022-10-04T12:54:33.930Z,100102.75
2022-10-04T12:57:15.930Z,100111.41
2022-10-04T12:59:52.610Z,100100.66
2022-10-04T13:02:31.665Z,100099.03
2022-10-04T13:04:58.659Z,100096.25
2022-10-04T13:07:26.468Z,100093.38
2022-10-04T13:10:24.932Z,100098.75
2022-10-04T13:13:12.001Z,100097.72
2022-10-04T13:18:35.529Z,100108.34
2022-10-04T13:21:16.125Z,100103.88
2022-10-04T13:23:53.520Z,100098.03
2022-10-04T13:26:24.582Z,100093.31
2022-10-04T13:29:05.191Z,100097.41
2022-10-04T13:31:49.217Z,100098.72
2022-10-04T13:34:37.021Z,100098.88
2022-10-04T13:37:07.446Z,100098.19
2022-10-04T13:39:54.256Z,100092.75
2022-10-04T13:42:33.429Z,100099.41
2022-10-04T13:45:26.318Z,100100.00
2022-10-04T13:48:27.703Z,100106.47
2022-10-04T13:50:55.604Z,100111.81
2022-10-04T13:53:55.939Z,100106.44
2022-10-04T13:56:43.770Z,100109.72
2022-10-04T13:59:34.987Z,100113.44
2022-10-04T14:02:04.165Z,100102.41
2022-10-04T14:04:42.468Z,100110.28
2022-10-04T14:07:15.579Z,100100.66
2022-10-04T14:10:13.328Z,100106.66
2022-10-04T14:13:06.334Z,100112.25
2022-10-04T14:15:51.491Z,100110.84
2022-10-04T14:18:45.357Z,100103.22
2022-10-04T14:21:21.499Z,100100.84
2022-10-04T14:23:56.609Z,100107.03
2022-10-04T14:26:32.985Z,100108.41
2022-10-04T14:29:14.262Z,100110.72
2022-10-04T14:31:53.199Z,100110.53
2022-10-04T14:34:32.049Z,100107.22
2022-10-04T14:37:04.752Z,100109.03
2022-10-04T14:39:54.525Z,100115.38
2022-10-04T14:42:46.017Z,100116.72
2022-10-04T14:45:33.688Z,100118.19
2022-10-04T14:48:07.934Z,100114.63
2022-10-04T14:51:00.421Z,100116.88
2022-10-04T14:53:30.227Z,100122.47
2022-10-04T14:56:33.891Z,100119.53
2022-10-04T14:59:33.673Z,100131.75
2022-10-04T15:02:11.476Z,100131.16
2022-10-04T15:04:58.759Z,100131.13
2022-10-04T15:07:34.116Z,100119.22
2022-10-04T15:10:12.941Z,100127.50
2022-10-04T15:13:10.313Z,100133.25
2022-10-04T15:15:52.850Z,100135.78
2022-10-04T15:18:31.588Z,100142.06
2022-10-04T15:21:02.712Z,100149.47
2022-10-04T15:23:38.113Z,100149.97
2022-10-04T15:26:12.493Z,100145.56
2022-10-04T15:28:47.365Z,100150.00
2022-10-04T15:31:33.602Z,100157.28
2022-10-04T15:34:24.920Z,100147.44
2022-10-04T15:36:57.665Z,100150.72
2022-10-04T15:39:24.479Z,100157.50
2022-10-04T15:41:56.454Z,100158.38
2022-10-04T15:44:30.221Z,100157.63
2022-10-04T15:46:58.162Z,100160.94
2022-10-04T15:50:02.886Z,100166.84
2022-10-04T15:52:38.737Z,100165.13
2022-10-04T15:55:05.716Z,100165.44
2022-10-04T15:57:54.490Z,100170.28
2022-10-04T16:00:54.207Z,100175.25
2022-10-04T16:03:28.174Z,100167.63
2022-10-04T16:06:15.022Z,100172.25
2022-10-04T16:08:48.903Z,100171.31
2022-10-04T16:11:53.612Z,100179.91
2022-10-04T16:14:30.388Z,100176.97
2022-10-04T16:17:18.812Z,100169.78
2022-10-04T16:20:08.498Z,100174.31
2022-10-04T16:22:36.732Z,100172.44
2022-10-04T16:25:39.034Z,100163.22
2022-10-04T16:28:14.617Z,100169.53
2022-10-04T16:30:52.778Z,100177.63
2022-10-04T16:33:44.353Z,100164.41
2022-10-04T16:36:27.857Z,100174.63
2022-10-04T16:39:18.903Z,100170.63
2022-10-04T16:41:47.689Z,100163.69
2022-10-04T16:44:32.954Z,100168.63
2022-10-04T16:47:19.832Z,100165.66
2022-10-04T16:49:49.526Z,100176.31
2022-10-04T16:52:46.269Z,100191.00
2022-10-04T16:55:35.821Z,100176.25
2022-10-04T16:58:21.560Z,100181.78
2022-10-04T17:01:27.902Z,100183.63
2022-10-04T17:04:04.032Z,100194.84
2022-10-04T17:06:46.932Z,100192.97
2022-10-04T17:09:38.582Z,100200.81
2022-10-04T17:12:24.002Z,100200.41
2022-10-04T17:14:50.767Z,100203.28
2022-10-04T17:17:44.145Z,100200.41
2022-10-04T17:20:31.808Z,100198.19
2022-10-04T17:23:00.618Z,100197.47
2022-10-04T17:25:43.385Z,100211.47
2022-10-04T17:28:47.800Z,100206.31
2022-10-04T17:31:26.251Z,100210.72
2022-10-04T17:34:13.110Z,100216.78
2022-10-04T17:36:50.658Z,100211.63
2022-10-04T17:39:22.287Z,100210.88
2022-10-04T17:41:59.502Z,100209.75
2022-10-04T17:44:46.435Z,100215.19
2022-10-04T17:47:23.033Z,100212.63
2022-10-04T17:50:21.962Z,100210.31
2022-10-04T17:53:15.791Z,100217.06
2022-10-04T17:55:56.493Z,100225.31
2022-10-04T17:58:27.023Z,100226.22
2022-10-04T18:01:15.552Z,100221.59
2022-10-04T18:03:48.074Z,100229.72
2022-10-04T18:06:26.358Z,100233.44
2022-10-04T18:09:02.588Z,100235.06
2022-10-04T18:11:50.653Z,100244.50
2022-10-04T18:14:36.989Z,100238.47
2022-10-04T18:17:04.184Z,100236.25
2022-10-04T18:19:51.713Z,100248.81
2022-10-04T18:22:20.171Z,100255.59
2022-10-04T18:24:51.029Z,100252.22
2022-10-04T18:27:30.118Z,100246.63
2022-10-04T18:30:16.773Z,100250.09
2022-10-04T18:33:03.816Z,100251.63
2022-10-04T18:35:33.076Z,100245.72
2022-10-04T18:38:16.774Z,100249.88
2022-10-04T18:40:53.190Z,100250.53
2022-10-04T18:43:41.805Z,100248.84
2022-10-04T18:46:21.722Z,100252.09
2022-10-04T18:48:55.233Z,100256.66
2022-10-04T18:51:25.541Z,100257.66
2022-10-04T18:54:24.955Z,100262.63
2022-10-04T18:57:00.679Z,100266.56
2022-10-04T19:00:04.847Z,100272.63
2022-10-04T19:02:52.470Z,100266.13
2022-10-04T19:05:39.169Z,100276.69
2022-10-04T19:08:31.394Z,100277.59
2022-10-04T19:11:16.915Z,100281.34
2022-10-04T19:13:44.169Z,100294.00
2022-10-04T19:16:15.930Z,100284.72
2022-10-04T19:22:13.972Z,100293.78
2022-10-04T19:25:07.160Z,100296.72
2022-10-04T19:27:41.968Z,100288.50
2022-10-04T19:30:16.073Z,100289.91
2022-10-04T19:33:01.663Z,100297.22
2022-10-04T19:35:38.446Z,100293.03
2022-10-04T19:38:28.047Z,100299.59
2022-10-04T19:41:16.707Z,100295.88
2022-10-04T19:47:21.408Z,100302.94
2022-10-04T19:53:33.311Z,100317.19
2022-10-04T19:56:21.112Z,100309.91
2022-10-04T19:59:01.201Z,100310.69
2022-10-04T20:01:30.292Z,100311.91
2022-10-04T20:04:17.275Z,100319.16
2022-10-04T20:06:52.267Z,100310.25
2022-10-04T20:09:27.473Z,100310.78
2022-10-04T20:15:43.810Z,100315.59
2022-10-04T20:18:33.573Z,100324.63
2022-10-04T20:21:02.131Z,100330.06
2022-10-04T20:23:48.047Z,100323.78
2022-10-04T20:26:53.837Z,100327.47
2022-10-04T20:30:16.366Z,100327.84
2022-10-04T20:32:45.247Z,100329.56
2022-10-04T20:35:34.861Z,100337.34
2022-10-04T20:38:32.677Z,100338.94
2022-10-04T20:41:06.839Z,100334.25
2022-10-04T20:43:52.527Z,100331.69
2022-10-04T20:46:23.596Z,100334.63
2022-10-04T20:48:51.524Z,100333.16
2022-10-04T20:51:28.038Z,100336.34
2022-10-04T20:53:54.988Z,100337.53
2022-10-04T20:56:25.054Z,100346.34
2022-10-04T20:59:05.085Z,100348.56
2022-10-04T21:01:36.455Z,100349.91
2022-10-04T21:04:18.140Z,100345.50
2022-10-04T21:06:58.078Z,100338.56
2022-10-04T21:09:27.972Z,100343.94
2022-10-04T21:11:56.759Z,100340.69
2022-10-04T21:14:25.910Z,100331.56
2022-10-04T21:17:02.598Z,100323.75
2022-10-04T21:19:33.018Z,100333.66
2022-10-04T21:22:02.511Z,100329.63
2022-10-04T21:24:49.087Z,100335.03
2022-10-04T21:27:27.017Z,100335.59
2022-10-04T21:30:01.337Z,100333.81
2022-10-04T21:32:31.388Z,100332.03
2022-10-04T21:35:09.074Z,100328.75
2022-10-04T21:37:36.484Z,100329.47
2022-10-04T21:40:08.833Z,100330.78
2022-10-04T21:42:38.928Z,100332.78
2022-10-04T21:45:07.959Z,100324.03
2022-10-04T21:47:37.631Z,100322.56
2022-10-04T21:50:04.711Z,100322.81
2022-10-04T21:52:37.617Z,100311.44
2022-10-04T21:55:10.762Z,100324.59
2022-10-04T21:57:50.549Z,100322.25
2022-10-04T22:00:18.411Z,100320.66
2022-10-04T22:02:53.361Z,100327.81
2022-10-04T22:05:23.456Z,100328.75
2022-10-04T22:07:52.375Z,100339.19
2022-10-04T22:10:19.346Z,100343.56
2022-10-04T22:12:58.541Z,100340.78
2022-10-04T22:15:29.045Z,100339.00
2022-10-04T22:17:57.195Z,100341.72
2022-10-04T22:20:25.222Z,100346.00
2022-10-04T22:22:59.364Z,100347.72
2022-10-04T22:25:33.350Z,100342.44
2022-10-04T22:28:00.556Z,100357.47
2022-10-04T22:30:29.985Z,100352.19
2022-10-04T22:33:23.158Z,100355.66
2022-10-04T22:35:50.141Z,100367.00
2022-10-04T22:38:18.180Z,100363.50
2022-10-04T22:40:47.079Z,100365.91
2022-10-04T22:43:28.257Z,100360.47
2022-10-04T22:45:57.143Z,100361.66
2022-10-04T22:48:29.316Z,100361.63
2022-10-04T22:51:11.206Z,100367.94
2022-10-04T22:53:41.236Z,100375.53
2022-10-04T22:56:20.072Z,100379.16
2022-10-04T22:58:55.853Z,100384.50
2022-10-04T23:01:26.822Z,100381.25
2022-10-04T23:03:54.812Z,100384.00
2022-10-04T23:06:21.674Z,100386.66
2022-10-04T23:09:03.891Z,100374.75
2022-10-04T23:11:33.686Z,100376.78
2022-10-04T23:14:00.473Z,100377.84
2022-10-04T23:16:27.417Z,100372.03
2022-10-04T23:19:11.468Z,100378.16
2022-10-04T23:21:39.936Z,100361.44
2022-10-04T23:24:23.563Z,100363.47
2022-10-04T23:26:56.306Z,100357.19
2022-10-04T23:29:38.580Z,100356.41
2022-10-04T23:32:17.407Z,100349.47
2022-10-04T23:34:56.277Z,100349.56
2022-10-04T23:37:25.683Z,100342.66
2022-10-04T23:39:52.778Z,100351.53
2022-10-04T23:42:25.452Z,100353.75
2022-10-04T23:44:52.501Z,100334.59
2022-10-04T23:47:20.578Z,100337.19
2022-10-04T23:49:48.671Z,100331.25
2022-10-04T23:52:18.689Z,100343.69
2022-10-04T23:54:48.513Z,100343.63
2022-10-04T23:57:20.354Z,100333.81
2022-10-04T23:59:47.676Z,100332.00
